sensor_id;sensor_type;location;lat;lon;timestamp;temperature;humidity
23102;DHT22;11720;51.214;22.574;2023-02-28T00:00:11;-1.90;99.90
23102;DHT22;11720;51.214;22.574;2023-02-28T00:02:38;-1.90;99.90
23102;DHT22;11720;51.214;22.574;2023-02-28T00:05:05;-1.90;99.90
23102;DHT22;11720;51.214;22.574;2023-02-28T00:07:31;-1.90;99.90
23102;DHT22;11720;51.214;22.574;2023-02-28T00:09:57;-2.00;99.90
23102;DHT22;11720;51.214;22.574;2023-02-28T00:12:23;-2.00;99.90
23102;DHT22;11720;51.214;22.574;2023-02-28T00:14:49;-2.00;99.90
23102;DHT22;11720;51.214;22.574;2023-02-28T00:17:15;-2.00;99.90
23102;DHT22;11720;51.214;22.574;2023-02-28T00:19:50;-1.60;99.90
23102;DHT22;11720;51.214;22.574;2023-02-28T00:22:18;-2.00;99.90
23102;DHT22;11720;51.214;22.574;2023-02-28T00:24:44;-2.10;99.90
23102;DHT22;11720;51.214;22.574;2023-02-28T00:27:10;-1.40;99.90
23102;DHT22;11720;51.214;22.574;2023-02-28T00:29:36;-2.20;99.90
23102;DHT22;11720;51.214;22.574;2023-02-28T00:32:02;-2.20;99.90
23102;DHT22;11720;51.214;22.574;2023-02-28T00:34:28;-2.20;99.90
23102;DHT22;11720;51.214;22.574;2023-02-28T00:36:54;-2.20;99.90
23102;DHT22;11720;51.214;22.574;2023-02-28T00:39:19;-2.20;99.90
23102;DHT22;11720;51.214;22.574;2023-02-28T00:41:45;-2.30;99.90
23102;DHT22;11720;51.214;22.574;2023-02-28T00:44:11;-2.30;99.90
23102;DHT22;11720;51.214;22.574;2023-02-28T00:46:36;-2.30;99.90
23102;DHT22;11720;51.214;22.574;2023-02-28T00:49:02;-2.40;99.90
23102;DHT22;11720;51.214;22.574;2023-02-28T00:51:27;-2.40;99.90
23102;DHT22;11720;51.214;22.574;2023-02-28T00:53:54;-2.40;99.90
23102;DHT22;11720;51.214;22.574;2023-02-28T00:56:20;-2.40;99.90
23102;DHT22;11720;51.214;22.574;2023-02-28T00:58:45;-1.00;99.90
23102;DHT22;11720;51.214;22.574;2023-02-28T01:01:11;-1.20;99.90
23102;DHT22;11720;51.214;22.574;2023-02-28T01:03:37;-2.20;99.90
23102;DHT22;11720;51.214;22.574;2023-02-28T01:06:04;-2.60;99.90
23102;DHT22;11720;51.214;22.574;2023-02-28T01:08:29;-2.60;99.90
23102;DHT22;11720;51.214;22.574;2023-02-28T01:10:55;-1.80;99.90
23102;DHT22;11720;51.214;22.574;2023-02-28T01:13:21;-2.60;99.90
23102;DHT22;11720;51.214;22.574;2023-02-28T01:15:54;-2.70;99.90
23102;DHT22;11720;51.214;22.574;2023-02-28T01:18:21;-1.90;99.90
23102;DHT22;11720;51.214;22.574;2023-02-28T01:20:47;-2.20;99.90
23102;DHT22;11720;51.214;22.574;2023-02-28T01:23:13;-2.80;99.90
23102;DHT22;11720;51.214;22.574;2023-02-28T01:25:39;-2.70;99.90
23102;DHT22;11720;51.214;22.574;2023-02-28T01:28:05;-2.70;99.90
23102;DHT22;11720;51.214;22.574;2023-02-28T01:30:31;-2.30;99.90
23102;DHT22;11720;51.214;22.574;2023-02-28T01:32:58;-2.50;99.90
23102;DHT22;11720;51.214;22.574;2023-02-28T01:35:23;-1.90;99.90
23102;DHT22;11720;51.214;22.574;2023-02-28T01:37:49;-2.80;99.90
23102;DHT22;11720;51.214;22.574;2023-02-28T01:40:15;-2.90;99.90
23102;DHT22;11720;51.214;22.574;2023-02-28T01:42:40;-2.90;99.90
23102;DHT22;11720;51.214;22.574;2023-02-28T01:47:50;-3.00;99.90
23102;DHT22;11720;51.214;22.574;2023-02-28T01:50:21;-3.00;99.90
23102;DHT22;11720;51.214;22.574;2023-02-28T01:52:48;-1.80;99.90
23102;DHT22;11720;51.214;22.574;2023-02-28T01:55:16;-3.10;99.90
23102;DHT22;11720;51.214;22.574;2023-02-28T01:57:48;-2.50;99.90
23102;DHT22;11720;51.214;22.574;2023-02-28T02:00:18;-3.10;99.90
23102;DHT22;11720;51.214;22.574;2023-02-28T02:02:48;-3.10;99.90
23102;DHT22;11720;51.214;22.574;2023-02-28T02:05:18;-3.10;99.90
23102;DHT22;11720;51.214;22.574;2023-02-28T02:07:46;-3.20;99.90
23102;DHT22;11720;51.214;22.574;2023-02-28T02:20:47;-3.30;99.90
23102;DHT22;11720;51.214;22.574;2023-02-28T02:32:29;-3.30;99.90
23102;DHT22;11720;51.214;22.574;2023-02-28T02:37:38;-3.30;99.90
23102;DHT22;11720;51.214;22.574;2023-02-28T02:45:45;-3.30;99.90
23102;DHT22;11720;51.214;22.574;2023-02-28T02:48:14;-3.40;99.90
23102;DHT22;11720;51.214;22.574;2023-02-28T02:50:50;-2.40;99.90
23102;DHT22;11720;51.214;22.574;2023-02-28T02:53:19;-3.40;99.90
23102;DHT22;11720;51.214;22.574;2023-02-28T02:55:49;-3.30;99.90
23102;DHT22;11720;51.214;22.574;2023-02-28T02:58:22;-3.40;99.90
23102;DHT22;11720;51.214;22.574;2023-02-28T03:00:52;-3.30;99.90
23102;DHT22;11720;51.214;22.574;2023-02-28T03:03:19;-3.40;99.90
23102;DHT22;11720;51.214;22.574;2023-02-28T03:05:58;-3.40;99.90
23102;DHT22;11720;51.214;22.574;2023-02-28T03:08:26;-2.30;99.90
23102;DHT22;11720;51.214;22.574;2023-02-28T03:10:57;-3.40;99.90
23102;DHT22;11720;51.214;22.574;2023-02-28T03:18:54;-2.90;99.90
23102;DHT22;11720;51.214;22.574;2023-02-28T03:26:34;-3.60;99.90
23102;DHT22;11720;51.214;22.574;2023-02-28T03:29:09;-3.40;99.90
23102;DHT22;11720;51.214;22.574;2023-02-28T03:32:16;-3.50;99.90
23102;DHT22;11720;51.214;22.574;2023-02-28T03:34:57;-3.50;99.90
23102;DHT22;11720;51.214;22.574;2023-02-28T03:37:27;-3.50;99.90
23102;DHT22;11720;51.214;22.574;2023-02-28T03:40:08;-3.50;99.90
23102;DHT22;11720;51.214;22.574;2023-02-28T03:42:39;-3.50;99.90
23102;DHT22;11720;51.214;22.574;2023-02-28T03:45:11;-3.50;99.90
23102;DHT22;11720;51.214;22.574;2023-02-28T03:50:21;-3.50;99.90
23102;DHT22;11720;51.214;22.574;2023-02-28T03:52:53;-3.50;99.90
23102;DHT22;11720;51.214;22.574;2023-02-28T03:55:20;-2.80;99.90
23102;DHT22;11720;51.214;22.574;2023-02-28T03:58:11;-3.40;99.90
23102;DHT22;11720;51.214;22.574;2023-02-28T04:00:43;-3.40;99.90
23102;DHT22;11720;51.214;22.574;2023-02-28T04:03:11;-2.50;99.90
23102;DHT22;11720;51.214;22.574;2023-02-28T04:05:52;-3.40;99.90
23102;DHT22;11720;51.214;22.574;2023-02-28T04:08:19;-3.40;99.90
23102;DHT22;11720;51.214;22.574;2023-02-28T04:10:52;-3.40;99.90
23102;DHT22;11720;51.214;22.574;2023-02-28T04:13:18;-2.30;99.90
23102;DHT22;11720;51.214;22.574;2023-02-28T04:15:44;-3.30;99.90
23102;DHT22;11720;51.214;22.574;2023-02-28T04:18:10;-2.10;99.90
23102;DHT22;11720;51.214;22.574;2023-02-28T04:20:35;-2.40;99.90
23102;DHT22;11720;51.214;22.574;2023-02-28T04:23:01;-2.90;99.90
23102;DHT22;11720;51.214;22.574;2023-02-28T04:25:27;-3.20;99.90
23102;DHT22;11720;51.214;22.574;2023-02-28T04:27:52;-3.10;99.90
23102;DHT22;11720;51.214;22.574;2023-02-28T04:30:18;-3.30;99.90
23102;DHT22;11720;51.214;22.574;2023-02-28T04:32:44;-2.80;99.90
23102;DHT22;11720;51.214;22.574;2023-02-28T04:35:09;-2.00;99.90
23102;DHT22;11720;51.214;22.574;2023-02-28T04:37:35;-3.30;99.90
23102;DHT22;11720;51.214;22.574;2023-02-28T04:40:03;-2.90;99.90
23102;DHT22;11720;51.214;22.574;2023-02-28T04:42:29;-3.20;99.90
23102;DHT22;11720;51.214;22.574;2023-02-28T04:45:04;-3.30;99.90
23102;DHT22;11720;51.214;22.574;2023-02-28T04:47:29;-3.30;99.90
23102;DHT22;11720;51.214;22.574;2023-02-28T04:49:55;-2.00;99.90
23102;DHT22;11720;51.214;22.574;2023-02-28T04:52:22;-3.30;99.90
23102;DHT22;11720;51.214;22.574;2023-02-28T04:54:48;-3.40;99.90
23102;DHT22;11720;51.214;22.574;2023-02-28T04:57:14;-3.40;99.90
23102;DHT22;11720;51.214;22.574;2023-02-28T04:59:40;-3.10;99.90
23102;DHT22;11720;51.214;22.574;2023-02-28T05:02:05;-3.30;99.90
23102;DHT22;11720;51.214;22.574;2023-02-28T05:04:35;-3.40;99.90
23102;DHT22;11720;51.214;22.574;2023-02-28T05:07:02;-3.40;99.90
23102;DHT22;11720;51.214;22.574;2023-02-28T05:09:28;-3.40;99.90
23102;DHT22;11720;51.214;22.574;2023-02-28T05:11:55;-2.80;99.90
23102;DHT22;11720;51.214;22.574;2023-02-28T05:14:21;-3.40;99.90
23102;DHT22;11720;51.214;22.574;2023-02-28T05:16:47;-2.60;99.90
23102;DHT22;11720;51.214;22.574;2023-02-28T05:19:12;-3.50;99.90
23102;DHT22;11720;51.214;22.574;2023-02-28T05:21:49;-3.40;99.90
23102;DHT22;11720;51.214;22.574;2023-02-28T05:24:15;-3.50;99.90
23102;DHT22;11720;51.214;22.574;2023-02-28T05:26:48;-3.40;99.90
23102;DHT22;11720;51.214;22.574;2023-02-28T05:29:15;-2.10;99.90
23102;DHT22;11720;51.214;22.574;2023-02-28T05:31:41;-3.50;99.90
23102;DHT22;11720;51.214;22.574;2023-02-28T05:34:06;-3.50;99.90
23102;DHT22;11720;51.214;22.574;2023-02-28T05:36:32;-3.40;99.90
23102;DHT22;11720;51.214;22.574;2023-02-28T05:38:58;-3.50;99.90
23102;DHT22;11720;51.214;22.574;2023-02-28T05:41:23;-3.10;99.90
23102;DHT22;11720;51.214;22.574;2023-02-28T05:43:49;-3.40;99.90
23102;DHT22;11720;51.214;22.574;2023-02-28T05:46:15;-2.80;99.90
23102;DHT22;11720;51.214;22.574;2023-02-28T05:48:42;-3.40;99.90
23102;DHT22;11720;51.214;22.574;2023-02-28T05:51:10;-3.40;99.90
23102;DHT22;11720;51.214;22.574;2023-02-28T05:53:36;-3.40;99.90
23102;DHT22;11720;51.214;22.574;2023-02-28T05:56:02;-3.30;99.90
23102;DHT22;11720;51.214;22.574;2023-02-28T05:58:28;-3.30;99.90
23102;DHT22;11720;51.214;22.574;2023-02-28T06:00:59;-3.30;99.90
23102;DHT22;11720;51.214;22.574;2023-02-28T06:03:26;-3.20;99.90
23102;DHT22;11720;51.214;22.574;2023-02-28T06:05:51;-3.10;99.90
23102;DHT22;11720;51.214;22.574;2023-02-28T06:08:17;-2.90;99.90
23102;DHT22;11720;51.214;22.574;2023-02-28T06:10:43;-3.00;99.90
23102;DHT22;11720;51.214;22.574;2023-02-28T06:13:10;-2.00;99.90
23102;DHT22;11720;51.214;22.574;2023-02-28T06:15:38;-2.80;99.90
23102;DHT22;11720;51.214;22.574;2023-02-28T06:18:03;-2.70;99.90
23102;DHT22;11720;51.214;22.574;2023-02-28T06:20:29;-2.60;99.90
23102;DHT22;11720;51.214;22.574;2023-02-28T06:22:56;-2.50;99.90
23102;DHT22;11720;51.214;22.574;2023-02-28T06:25:24;-2.40;99.90
23102;DHT22;11720;51.214;22.574;2023-02-28T06:27:50;-2.30;99.90
23102;DHT22;11720;51.214;22.574;2023-02-28T06:30:16;-2.20;99.90
23102;DHT22;11720;51.214;22.574;2023-02-28T06:32:42;-2.10;99.90
23102;DHT22;11720;51.214;22.574;2023-02-28T06:35:08;-1.90;99.90
23102;DHT22;11720;51.214;22.574;2023-02-28T06:37:33;-2.00;99.90
23102;DHT22;11720;51.214;22.574;2023-02-28T06:39:59;-1.90;99.90
23102;DHT22;11720;51.214;22.574;2023-02-28T06:42:25;-1.90;99.90
23102;DHT22;11720;51.214;22.574;2023-02-28T06:44:57;-1.80;99.90
23102;DHT22;11720;51.214;22.574;2023-02-28T06:47:23;-1.70;99.90
23102;DHT22;11720;51.214;22.574;2023-02-28T06:49:49;-1.70;99.90
23102;DHT22;11720;51.214;22.574;2023-02-28T06:52:15;-1.70;99.90
23102;DHT22;11720;51.214;22.574;2023-02-28T06:54:41;-1.60;99.90
23102;DHT22;11720;51.214;22.574;2023-02-28T06:57:07;-1.50;99.90
23102;DHT22;11720;51.214;22.574;2023-02-28T06:59:34;-1.40;99.90
23102;DHT22;11720;51.214;22.574;2023-02-28T07:02:00;-1.50;99.90
23102;DHT22;11720;51.214;22.574;2023-02-28T07:04:27;-1.40;99.90
23102;DHT22;11720;51.214;22.574;2023-02-28T07:06:54;-1.40;99.90
23102;DHT22;11720;51.214;22.574;2023-02-28T07:09:21;-0.70;99.90
23102;DHT22;11720;51.214;22.574;2023-02-28T07:11:47;-1.30;99.90
23102;DHT22;11720;51.214;22.574;2023-02-28T07:14:12;-1.20;99.90
23102;DHT22;11720;51.214;22.574;2023-02-28T07:16:39;-1.20;99.90
23102;DHT22;11720;51.214;22.574;2023-02-28T07:19:05;-1.20;99.90
23102;DHT22;11720;51.214;22.574;2023-02-28T07:21:30;-1.10;99.90
23102;DHT22;11720;51.214;22.574;2023-02-28T07:23:56;-1.10;99.90
23102;DHT22;11720;51.214;22.574;2023-02-28T07:26:22;-1.00;99.90
23102;DHT22;11720;51.214;22.574;2023-02-28T07:28:49;-0.90;99.90
23102;DHT22;11720;51.214;22.574;2023-02-28T07:31:15;-1.00;99.90
23102;DHT22;11720;51.214;22.574;2023-02-28T07:33:41;-0.90;99.90
23102;DHT22;11720;51.214;22.574;2023-02-28T07:36:17;-0.80;99.90
23102;DHT22;11720;51.214;22.574;2023-02-28T07:38:47;-0.80;99.90
23102;DHT22;11720;51.214;22.574;2023-02-28T07:41:16;-0.70;99.90
23102;DHT22;11720;51.214;22.574;2023-02-28T07:43:42;-0.60;99.90
23102;DHT22;11720;51.214;22.574;2023-02-28T07:46:10;-0.60;99.90
23102;DHT22;11720;51.214;22.574;2023-02-28T07:48:36;-0.50;99.90
23102;DHT22;11720;51.214;22.574;2023-02-28T07:51:02;-0.50;99.90
23102;DHT22;11720;51.214;22.574;2023-02-28T07:53:29;-0.40;99.90
23102;DHT22;11720;51.214;22.574;2023-02-28T07:55:56;-0.30;99.90
23102;DHT22;11720;51.214;22.574;2023-02-28T07:58:21;-0.20;99.90
23102;DHT22;11720;51.214;22.574;2023-02-28T08:00:47;-0.10;99.90
23102;DHT22;11720;51.214;22.574;2023-02-28T08:03:13;-0.10;99.90
23102;DHT22;11720;51.214;22.574;2023-02-28T08:05:39;0.10;99.90
23102;DHT22;11720;51.214;22.574;2023-02-28T08:08:06;0.10;99.90
23102;DHT22;11720;51.214;22.574;2023-02-28T08:10:32;0.10;99.90
23102;DHT22;11720;51.214;22.574;2023-02-28T08:12:58;0.10;99.90
23102;DHT22;11720;51.214;22.574;2023-02-28T08:15:24;0.20;99.90
23102;DHT22;11720;51.214;22.574;2023-02-28T08:17:49;0.30;99.90
23102;DHT22;11720;51.214;22.574;2023-02-28T08:20:15;0.10;99.90
23102;DHT22;11720;51.214;22.574;2023-02-28T08:22:41;0.00;99.90
23102;DHT22;11720;51.214;22.574;2023-02-28T08:25:07;0.00;99.90
23102;DHT22;11720;51.214;22.574;2023-02-28T08:27:34;0.10;99.90
23102;DHT22;11720;51.214;22.574;2023-02-28T08:30:00;0.10;99.90
23102;DHT22;11720;51.214;22.574;2023-02-28T08:32:25;0.10;99.90
23102;DHT22;11720;51.214;22.574;2023-02-28T08:34:51;0.30;99.90
23102;DHT22;11720;51.214;22.574;2023-02-28T08:37:17;0.30;99.90
23102;DHT22;11720;51.214;22.574;2023-02-28T08:39:43;0.50;99.90
23102;DHT22;11720;51.214;22.574;2023-02-28T08:42:08;0.50;99.90
23102;DHT22;11720;51.214;22.574;2023-02-28T08:44:34;0.60;99.90
23102;DHT22;11720;51.214;22.574;2023-02-28T08:46:59;0.50;99.90
23102;DHT22;11720;51.214;22.574;2023-02-28T08:49:25;0.20;99.90
23102;DHT22;11720;51.214;22.574;2023-02-28T08:51:51;0.00;99.90
23102;DHT22;11720;51.214;22.574;2023-02-28T08:54:17;0.20;99.90
23102;DHT22;11720;51.214;22.574;2023-02-28T08:56:46;0.40;99.90
23102;DHT22;11720;51.214;22.574;2023-02-28T08:59:14;0.50;99.90
23102;DHT22;11720;51.214;22.574;2023-02-28T09:01:40;0.70;99.60
23102;DHT22;11720;51.214;22.574;2023-02-28T09:04:09;0.60;97.40
23102;DHT22;11720;51.214;22.574;2023-02-28T09:06:37;0.60;98.50
23102;DHT22;11720;51.214;22.574;2023-02-28T09:09:03;0.80;96.70
23102;DHT22;11720;51.214;22.574;2023-02-28T09:11:31;0.70;96.50
23102;DHT22;11720;51.214;22.574;2023-02-28T09:13:58;0.80;94.60
23102;DHT22;11720;51.214;22.574;2023-02-28T09:16:24;1.00;95.80
23102;DHT22;11720;51.214;22.574;2023-02-28T09:18:50;1.10;93.00
23102;DHT22;11720;51.214;22.574;2023-02-28T09:21:17;1.20;91.90
23102;DHT22;11720;51.214;22.574;2023-02-28T09:23:44;1.20;92.00
23102;DHT22;11720;51.214;22.574;2023-02-28T09:26:15;1.20;93.60
23102;DHT22;11720;51.214;22.574;2023-02-28T09:28:41;1.40;93.30
23102;DHT22;11720;51.214;22.574;2023-02-28T09:31:13;1.30;91.30
23102;DHT22;11720;51.214;22.574;2023-02-28T09:33:39;1.40;93.20
23102;DHT22;11720;51.214;22.574;2023-02-28T09:36:05;1.50;93.50
23102;DHT22;11720;51.214;22.574;2023-02-28T09:38:31;1.50;94.00
23102;DHT22;11720;51.214;22.574;2023-02-28T09:41:11;1.70;94.00
23102;DHT22;11720;51.214;22.574;2023-02-28T09:43:41;1.90;92.60
23102;DHT22;11720;51.214;22.574;2023-02-28T09:46:20;2.00;91.90
23102;DHT22;11720;51.214;22.574;2023-02-28T09:48:48;2.10;92.10
23102;DHT22;11720;51.214;22.574;2023-02-28T09:51:37;2.20;91.20
23102;DHT22;11720;51.214;22.574;2023-02-28T09:54:05;2.30;90.30
23102;DHT22;11720;51.214;22.574;2023-02-28T09:56:33;2.30;90.70
23102;DHT22;11720;51.214;22.574;2023-02-28T10:01:37;2.40;87.80
23102;DHT22;11720;51.214;22.574;2023-02-28T10:06:53;2.30;87.10
23102;DHT22;11720;51.214;22.574;2023-02-28T10:09:27;2.20;86.20
23102;DHT22;11720;51.214;22.574;2023-02-28T10:12:02;2.20;87.80
23102;DHT22;11720;51.214;22.574;2023-02-28T10:14:30;2.20;84.10
23102;DHT22;11720;51.214;22.574;2023-02-28T10:16:58;2.20;85.50
23102;DHT22;11720;51.214;22.574;2023-02-28T10:19:41;2.10;84.80
23102;DHT22;11720;51.214;22.574;2023-02-28T10:24:51;2.00;87.30
23102;DHT22;11720;51.214;22.574;2023-02-28T10:29:46;2.00;83.90
23102;DHT22;11720;51.214;22.574;2023-02-28T10:32:37;2.10;85.30
23102;DHT22;11720;51.214;22.574;2023-02-28T10:37:41;2.20;83.80
23102;DHT22;11720;51.214;22.574;2023-02-28T10:40:27;2.20;83.00
23102;DHT22;11720;51.214;22.574;2023-02-28T10:43:05;2.50;83.80
23102;DHT22;11720;51.214;22.574;2023-02-28T10:45:35;2.40;82.70
23102;DHT22;11720;51.214;22.574;2023-02-28T10:55:43;2.80;82.00
23102;DHT22;11720;51.214;22.574;2023-02-28T10:58:23;2.80;80.70
23102;DHT22;11720;51.214;22.574;2023-02-28T11:00:51;2.90;78.40
23102;DHT22;11720;51.214;22.574;2023-02-28T11:03:28;2.90;80.20
23102;DHT22;11720;51.214;22.574;2023-02-28T11:05:54;2.80;79.70
23102;DHT22;11720;51.214;22.574;2023-02-28T11:08:20;2.40;78.20
23102;DHT22;11720;51.214;22.574;2023-02-28T11:10:54;2.40;80.50
23102;DHT22;11720;51.214;22.574;2023-02-28T11:13:26;2.60;81.40
23102;DHT22;11720;51.214;22.574;2023-02-28T11:15:55;2.90;80.90
23102;DHT22;11720;51.214;22.574;2023-02-28T11:18:50;3.20;82.00
23102;DHT22;11720;51.214;22.574;2023-02-28T11:21:19;3.30;80.90
23102;DHT22;11720;51.214;22.574;2023-02-28T11:23:49;3.30;79.70
23102;DHT22;11720;51.214;22.574;2023-02-28T11:26:17;3.30;77.10
23102;DHT22;11720;51.214;22.574;2023-02-28T11:29:20;3.00;78.60
23102;DHT22;11720;51.214;22.574;2023-02-28T11:32:22;2.90;76.10
23102;DHT22;11720;51.214;22.574;2023-02-28T11:37:27;3.00;81.40
23102;DHT22;11720;51.214;22.574;2023-02-28T11:39:54;3.20;79.80
23102;DHT22;11720;51.214;22.574;2023-02-28T11:42:43;3.30;77.10
23102;DHT22;11720;51.214;22.574;2023-02-28T11:47:58;3.40;77.70
23102;DHT22;11720;51.214;22.574;2023-02-28T11:53:51;3.30;78.00
23102;DHT22;11720;51.214;22.574;2023-02-28T11:56:38;3.50;77.60
23102;DHT22;11720;51.214;22.574;2023-02-28T12:02:05;3.70;74.70
23102;DHT22;11720;51.214;22.574;2023-02-28T12:07:36;3.60;74.30
23102;DHT22;11720;51.214;22.574;2023-02-28T12:15:23;2.90;76.30
23102;DHT22;11720;51.214;22.574;2023-02-28T12:17:55;3.00;79.40
23102;DHT22;11720;51.214;22.574;2023-02-28T12:20:37;3.20;77.20
23102;DHT22;11720;51.214;22.574;2023-02-28T12:28:54;3.80;77.70
23102;DHT22;11720;51.214;22.574;2023-02-28T12:31:36;3.60;74.30
23102;DHT22;11720;51.214;22.574;2023-02-28T12:34:39;3.60;75.80
23102;DHT22;11720;51.214;22.574;2023-02-28T12:36:58;3.90;74.90
23102;DHT22;11720;51.214;22.574;2023-02-28T12:39:31;4.10;73.90
23102;DHT22;11720;51.214;22.574;2023-02-28T12:42:07;4.30;73.80
23102;DHT22;11720;51.214;22.574;2023-02-28T12:44:46;4.40;72.70
23102;DHT22;11720;51.214;22.574;2023-02-28T12:47:16;4.50;73.60
23102;DHT22;11720;51.214;22.574;2023-02-28T12:52:17;4.80;70.10
23102;DHT22;11720;51.214;22.574;2023-02-28T12:54:52;5.00;69.90
23102;DHT22;11720;51.214;22.574;2023-02-28T12:57:35;4.40;69.40
23102;DHT22;11720;51.214;22.574;2023-02-28T13:00:16;6.20;72.40
23102;DHT22;11720;51.214;22.574;2023-02-28T13:03:06;4.40;70.80
23102;DHT22;11720;51.214;22.574;2023-02-28T13:11:07;4.90;71.60
23102;DHT22;11720;51.214;22.574;2023-02-28T13:13:32;5.20;68.40
23102;DHT22;11720;51.214;22.574;2023-02-28T13:18:39;5.50;70.20
23102;DHT22;11720;51.214;22.574;2023-02-28T13:21:07;5.90;65.80
23102;DHT22;11720;51.214;22.574;2023-02-28T13:26:22;6.60;63.60
23102;DHT22;11720;51.214;22.574;2023-02-28T13:31:16;7.30;62.50
23102;DHT22;11720;51.214;22.574;2023-02-28T13:38:57;7.80;60.50
23102;DHT22;11720;51.214;22.574;2023-02-28T13:57:49;9.70;56.60
23102;DHT22;11720;51.214;22.574;2023-02-28T14:03:39;9.40;55.20
23102;DHT22;11720;51.214;22.574;2023-02-28T14:06:34;9.60;55.90
23102;DHT22;11720;51.214;22.574;2023-02-28T14:11:37;10.10;54.10
23102;DHT22;11720;51.214;22.574;2023-02-28T14:14:04;9.80;54.10
23102;DHT22;11720;51.214;22.574;2023-02-28T14:16:46;9.30;54.70
23102;DHT22;11720;51.214;22.574;2023-02-28T14:19:27;8.80;55.10
23102;DHT22;11720;51.214;22.574;2023-02-28T14:22:39;7.40;56.80
23102;DHT22;11720;51.214;22.574;2023-02-28T14:25:32;5.30;60.50
23102;DHT22;11720;51.214;22.574;2023-02-28T14:31:15;4.90;63.60
23102;DHT22;11720;51.214;22.574;2023-02-28T14:36:27;4.70;64.50
23102;DHT22;11720;51.214;22.574;2023-02-28T14:39:15;4.80;66.80
23102;DHT22;11720;51.214;22.574;2023-02-28T14:41:43;5.00;64.70
23102;DHT22;11720;51.214;22.574;2023-02-28T14:44:23;4.80;64.40
23102;DHT22;11720;51.214;22.574;2023-02-28T14:46:56;4.30;66.00
23102;DHT22;11720;51.214;22.574;2023-02-28T14:49:30;4.10;66.80
23102;DHT22;11720;51.214;22.574;2023-02-28T14:52:17;3.70;68.80
23102;DHT22;11720;51.214;22.574;2023-02-28T14:54:46;3.70;68.20
23102;DHT22;11720;51.214;22.574;2023-02-28T14:57:34;3.50;68.90
23102;DHT22;11720;51.214;22.574;2023-02-28T15:00:04;3.20;69.60
23102;DHT22;11720;51.214;22.574;2023-02-28T15:02:37;3.10;71.60
23102;DHT22;11720;51.214;22.574;2023-02-28T15:07:38;2.80;73.10
23102;DHT22;11720;51.214;22.574;2023-02-28T15:10:24;2.60;73.80
23102;DHT22;11720;51.214;22.574;2023-02-28T15:12:56;2.50;74.60
23102;DHT22;11720;51.214;22.574;2023-02-28T15:17:59;2.30;75.80
23102;DHT22;11720;51.214;22.574;2023-02-28T15:20:26;2.30;76.70
23102;DHT22;11720;51.214;22.574;2023-02-28T15:22:54;2.30;76.10
23102;DHT22;11720;51.214;22.574;2023-02-28T15:25:22;2.30;77.20
23102;DHT22;11720;51.214;22.574;2023-02-28T15:27:53;2.40;75.40
23102;DHT22;11720;51.214;22.574;2023-02-28T15:30:27;2.40;75.90
23102;DHT22;11720;51.214;22.574;2023-02-28T15:35:41;2.20;75.70
23102;DHT22;11720;51.214;22.574;2023-02-28T15:38:25;2.10;76.10
23102;DHT22;11720;51.214;22.574;2023-02-28T15:40:54;2.10;76.50
23102;DHT22;11720;51.214;22.574;2023-02-28T15:45:51;1.90;78.60
23102;DHT22;11720;51.214;22.574;2023-02-28T15:48:21;1.90;79.10
23102;DHT22;11720;51.214;22.574;2023-02-28T15:50:55;1.90;79.30
23102;DHT22;11720;51.214;22.574;2023-02-28T15:53:38;1.80;79.60
23102;DHT22;11720;51.214;22.574;2023-02-28T15:56:12;1.90;79.10
23102;DHT22;11720;51.214;22.574;2023-02-28T15:58:42;1.80;81.10
23102;DHT22;11720;51.214;22.574;2023-02-28T16:01:24;1.80;80.60
23102;DHT22;11720;51.214;22.574;2023-02-28T16:03:51;1.80;82.90
23102;DHT22;11720;51.214;22.574;2023-02-28T16:08:59;1.70;85.30
23102;DHT22;11720;51.214;22.574;2023-02-28T16:11:25;1.60;88.30
23102;DHT22;11720;51.214;22.574;2023-02-28T16:13:52;1.50;90.00
23102;DHT22;11720;51.214;22.574;2023-02-28T16:16:21;1.40;90.20
23102;DHT22;11720;51.214;22.574;2023-02-28T16:18:47;1.30;90.30
23102;DHT22;11720;51.214;22.574;2023-02-28T16:21:14;1.30;90.20
23102;DHT22;11720;51.214;22.574;2023-02-28T16:23:40;1.20;90.70
23102;DHT22;11720;51.214;22.574;2023-02-28T16:26:07;1.20;91.10
23102;DHT22;11720;51.214;22.574;2023-02-28T16:28:35;1.10;91.70
23102;DHT22;11720;51.214;22.574;2023-02-28T16:31:04;1.00;93.40
23102;DHT22;11720;51.214;22.574;2023-02-28T16:33:31;0.90;97.10
23102;DHT22;11720;51.214;22.574;2023-02-28T16:35:57;0.80;99.60
23102;DHT22;11720;51.214;22.574;2023-02-28T16:38:23;0.80;99.90
23102;DHT22;11720;51.214;22.574;2023-02-28T16:40:51;0.70;99.90
23102;DHT22;11720;51.214;22.574;2023-02-28T16:43:23;0.60;99.90
23102;DHT22;11720;51.214;22.574;2023-02-28T16:45:57;0.60;99.90
23102;DHT22;11720;51.214;22.574;2023-02-28T16:48:26;0.50;99.90
23102;DHT22;11720;51.214;22.574;2023-02-28T16:50:52;0.40;99.90
23102;DHT22;11720;51.214;22.574;2023-02-28T16:53:18;0.40;99.90
23102;DHT22;11720;51.214;22.574;2023-02-28T16:55:43;0.40;99.90
23102;DHT22;11720;51.214;22.574;2023-02-28T16:58:14;0.30;99.90
23102;DHT22;11720;51.214;22.574;2023-02-28T17:00:40;0.30;99.90
23102;DHT22;11720;51.214;22.574;2023-02-28T17:03:24;0.20;99.90
23102;DHT22;11720;51.214;22.574;2023-02-28T17:05:51;0.20;99.90
23102;DHT22;11720;51.214;22.574;2023-02-28T17:08:17;0.10;99.90
23102;DHT22;11720;51.214;22.574;2023-02-28T17:10:43;0.10;99.90
23102;DHT22;11720;51.214;22.574;2023-02-28T17:13:08;0.10;99.90
23102;DHT22;11720;51.214;22.574;2023-02-28T17:15:35;0.00;99.90
23102;DHT22;11720;51.214;22.574;2023-02-28T17:18:02;0.00;99.90
23102;DHT22;11720;51.214;22.574;2023-02-28T17:20:27;0.00;99.90
23102;DHT22;11720;51.214;22.574;2023-02-28T17:22:54;0.00;99.90
23102;DHT22;11720;51.214;22.574;2023-02-28T17:25:20;0.00;99.90
23102;DHT22;11720;51.214;22.574;2023-02-28T17:27:47;-0.10;99.90
23102;DHT22;11720;51.214;22.574;2023-02-28T17:30:18;-0.10;99.90
23102;DHT22;11720;51.214;22.574;2023-02-28T17:32:44;-0.20;99.90
23102;DHT22;11720;51.214;22.574;2023-02-28T17:35:10;-0.20;99.90
23102;DHT22;11720;51.214;22.574;2023-02-28T17:37:36;-0.20;99.90
23102;DHT22;11720;51.214;22.574;2023-02-28T17:40:03;-0.30;99.90
23102;DHT22;11720;51.214;22.574;2023-02-28T17:42:29;-0.40;99.90
23102;DHT22;11720;51.214;22.574;2023-02-28T17:44:54;-0.50;99.90
23102;DHT22;11720;51.214;22.574;2023-02-28T17:47:20;-0.50;99.90
23102;DHT22;11720;51.214;22.574;2023-02-28T17:49:46;-0.50;99.90
23102;DHT22;11720;51.214;22.574;2023-02-28T17:52:11;-0.60;99.90
23102;DHT22;11720;51.214;22.574;2023-02-28T17:54:37;-0.50;99.90
23102;DHT22;11720;51.214;22.574;2023-02-28T17:57:03;-0.50;99.90
23102;DHT22;11720;51.214;22.574;2023-02-28T17:59:28;-0.60;99.90
23102;DHT22;11720;51.214;22.574;2023-02-28T18:02:02;-0.60;99.90
23102;DHT22;11720;51.214;22.574;2023-02-28T18:04:29;-0.60;99.90
23102;DHT22;11720;51.214;22.574;2023-02-28T18:06:54;-0.60;99.90
23102;DHT22;11720;51.214;22.574;2023-02-28T18:09:26;-0.50;99.90